»·PEaware :: N209R KMCC-KOAK

N209R :: KMCC-KOAK

FLIGHT INFORMATION

Flight Status: Arrived
Operator: Privately registered:
United States
More flights under this callsign
Pilot: Nate M. (12976)
Aircraft: BEECH AIRCRAFT DEBONAIR BONANZA
(BE33)
More flights by this aircraft type
Origin: KMCC McClellan
United States
Destination: KOAK Metro Oakland Intl
United States
More flights between these airports :: More routes between these airports
Route: +SAC V334 SUNOL
File this flight plan on PilotEdge
Remarks:
Altitude:
(Current/Filed)
6,000ft
Speed:
(Current/Filed)
150kts
Departed: 27-Sep-18 02:11 PM
Arrived: 27-Sep-18 02:42 PM
Distance/Time
Traveled:
68nm/0:31
Distance/Time
To Go:
Arrived

Flight Plot

Page will automatically refresh every two minutes.

Flight plan parsing failed; only flown route is shown


Map Options




Map Legend


Flown Route
Filed Route
Departure Airport
Arrival Airport
Navaid (VOR, NDB)
Fix

Horizontal Profiles

Position Reports

Time Latitude Longitude Heading Altitude Ground
Speed
27-Sep-18 13:54 38.653645 -121.402594 0 69ft 0kts
27-Sep-18 13:55 38.653645 -121.402594 0 69ft 0kts
27-Sep-18 13:56 38.653645 -121.402594 0 69ft 0kts
27-Sep-18 13:57 38.653645 -121.402594 0 69ft 0kts
27-Sep-18 13:58 38.653645 -121.402594 0 69ft 0kts
27-Sep-18 13:59 38.653645 -121.402594 0 69ft 0kts
27-Sep-18 14:00 38.653645 -121.402594 0 69ft 0kts
27-Sep-18 14:01 38.653645 -121.402594 0 69ft 0kts
27-Sep-18 14:02 38.653645 -121.402594 0 69ft 0kts
27-Sep-18 14:03 38.653645 -121.402594 0 69ft 0kts
27-Sep-18 14:04 38.653645 -121.402594 0 69ft 0kts
27-Sep-18 14:05 38.653645 -121.402594 0 69ft 0kts
27-Sep-18 14:06 38.653645 -121.402594 0 69ft 0kts
27-Sep-18 14:07 38.653645 -121.402594 0 69ft 0kts
27-Sep-18 14:08 38.653645 -121.402594 0 69ft 0kts
27-Sep-18 14:09 38.653663 -121.402554 134 69ft 1kts
27-Sep-18 14:10 38.659347 -121.402499 3 69ft 32kts
27-Sep-18 14:11 38.667623 -121.401771 90 69ft 0kts
27-Sep-18 14:12 38.667596 -121.401058 96 69ft 11kts
27-Sep-18 14:13 38.645432 -121.406304 214 226ft 139kts
27-Sep-18 14:14 38.611188 -121.432573 210 1260ft 137kts
27-Sep-18 14:15 38.579851 -121.455272 209 2388ft 129kts
27-Sep-18 14:16 38.549256 -121.477068 209 3409ft 127kts
27-Sep-18 14:17 38.518585 -121.498813 210 4384ft 126kts
27-Sep-18 14:18 38.489329 -121.519538 210 5278ft 125kts
27-Sep-18 14:19 38.463138 -121.538088 211 5977ft 130kts
27-Sep-18 14:20 38.423550 -121.558163 195 6007ft 173kts
27-Sep-18 14:21 38.376233 -121.572846 195 6148ft 177kts
27-Sep-18 14:22 38.328151 -121.587787 195 6241ft 180kts
27-Sep-18 14:23 38.279065 -121.603044 195 6242ft 182kts
27-Sep-18 14:24 38.229526 -121.618414 195 6075ft 186kts
27-Sep-18 14:25 38.180573 -121.633555 195 5999ft 180kts
27-Sep-18 14:26 38.132449 -121.648447 195 5999ft 177kts
27-Sep-18 14:27 38.085134 -121.663338 195 6000ft 177kts
27-Sep-18 14:28 38.037800 -121.678024 195 6000ft 176kts
27-Sep-18 14:29 37.990764 -121.692549 195 6000ft 175kts
27-Sep-18 14:30 37.943959 -121.706822 195 6001ft 172kts
27-Sep-18 14:31 37.898143 -121.720891 194 6001ft 170kts
27-Sep-18 14:32 37.852262 -121.734986 194 6003ft 170kts
27-Sep-18 14:33 37.806431 -121.749054 194 5984ft 170kts
27-Sep-18 14:34 37.762314 -121.767311 235 5971ft 170kts
27-Sep-18 14:35 37.749343 -121.824817 253 5807ft 178kts
27-Sep-18 14:36 37.737290 -121.882243 253 4998ft 168kts
27-Sep-18 14:37 37.725158 -121.938052 253 4087ft 167kts
27-Sep-18 14:38 37.713972 -121.988424 253 3967ft 150kts
27-Sep-18 14:39 37.703003 -122.037347 253 3979ft 146kts
27-Sep-18 14:40 37.695066 -122.089348 285 3067ft 160kts
27-Sep-18 14:41 37.704939 -122.137792 284 1769ft 135kts
27-Sep-18 14:42 37.716839 -122.179232 290 629ft 108kts
27-Sep-18 14:43 37.724879 -122.204887 291 27ft 58kts
27-Sep-18 14:44 37.727887 -122.210404 302 7ft 10kts

Navigation Log

Ident Type
Flight plan parsing failed, navigation log unavailable